Time;durP1;ratioP1;P1;durP2;ratioP2;P2;SDS_P1;SDS_P2;PMS_P1;PMS_P2;Temp;Humidity;BMP_temperature;BMP_pressure;BME280_temperature;BME280_humidity;BME280_pressure;Samples;Min_cycle;Max_cycle;Signal;HPM_P1;HPM_P2
2023/03/08 00:01:24;;;;;;;22.92;14.95;;;;;;;;;;4995267;28;20078;-63
2023/03/08 00:03:56;;;;;;;26.42;15.90;;;;;;;;;;4977699;28;20574;-63
2023/03/08 00:06:25;;;;;;;22.60;15.25;;;;;;;;;;4994748;28;20089;-63
2023/03/08 00:08:59;;;;;;;28.40;16.23;;;;;;;;;;4995088;28;20046;-63
2023/03/08 00:11:26;;;;;;;25.48;14.57;;;;;;;;;;4995050;28;20511;-63
2023/03/08 00:13:54;;;;;;;28.90;15.35;;;;;;;;;;4995228;28;20435;-65
2023/03/08 00:16:21;;;;;;;24.75;15.55;;;;;;;;;;4994894;28;20050;-63
2023/03/08 00:18:49;;;;;;;33.70;19.30;;;;;;;;;;4994711;28;20534;-63
2023/03/08 00:21:17;;;;;;;28.52;17.40;;;;;;;;;;4994795;28;20444;-63
2023/03/08 00:23:45;;;;;;;29.65;17.52;;;;;;;;;;4994716;28;20416;-63
2023/03/08 00:26:13;;;;;;;31.60;17.80;;;;;;;;;;4994809;28;20080;-63
2023/03/08 00:28:41;;;;;;;24.65;15.20;;;;;;;;;;4994795;28;20046;-63
2023/03/08 00:31:11;;;;;;;26.52;15.55;;;;;;;;;;4977282;28;20034;-63
2023/03/08 00:33:39;;;;;;;24.48;15.07;;;;;;;;;;4977087;28;20084;-63
2023/03/08 00:36:08;;;;;;;28.45;14.73;;;;;;;;;;4977101;28;20069;-62
2023/03/08 00:38:37;;;;;;;22.75;14.15;;;;;;;;;;4977132;28;20039;-63
2023/03/08 00:41:05;;;;;;;21.05;12.82;;;;;;;;;;4994536;28;20038;-63
2023/03/08 00:43:33;;;;;;;24.50;14.55;;;;;;;;;;4977021;28;20049;-63
2023/03/08 00:46:02;;;;;;;26.35;14.82;;;;;;;;;;4976981;28;20492;-63
2023/03/08 00:48:30;;;;;;;25.92;15.80;;;;;;;;;;4976873;28;20042;-63
2023/03/08 00:50:58;;;;;;;26.50;15.30;;;;;;;;;;4976770;28;20034;-63
2023/03/08 00:53:25;;;;;;;24.17;15.57;;;;;;;;;;4976398;28;20134;-63
2023/03/08 00:55:55;;;;;;;26.30;16.05;;;;;;;;;;4976849;28;20035;-63
2023/03/08 00:58:23;;;;;;;26.48;15.48;;;;;;;;;;4994114;28;20046;-63
2023/03/08 01:00:51;;;;;;;29.42;16.33;;;;;;;;;;4976785;28;20047;-63
2023/03/08 01:03:20;;;;;;;30.65;16.80;;;;;;;;;;4976741;28;20052;-63
2023/03/08 01:05:49;;;;;;;29.52;16.80;;;;;;;;;;4976615;28;20101;-63
2023/03/08 01:08:17;;;;;;;33.35;17.17;;;;;;;;;;4976530;28;20074;-63
2023/03/08 01:10:48;;;;;;;26.63;17.02;;;;;;;;;;4993855;28;20049;-63
2023/03/08 01:13:16;;;;;;;30.30;17.50;;;;;;;;;;4976514;28;20073;-62
2023/03/08 01:15:44;;;;;;;27.55;16.55;;;;;;;;;;4993314;28;20042;-63
2023/03/08 01:18:12;;;;;;;30.65;18.30;;;;;;;;;;4976289;28;20062;-62
2023/03/08 01:20:39;;;;;;;29.23;17.98;;;;;;;;;;4993479;28;20105;-63
2023/03/08 01:23:07;;;;;;;34.85;20.13;;;;;;;;;;4976253;28;20082;-63
2023/03/08 01:25:34;;;;;;;30.33;19.35;;;;;;;;;;4993734;28;20377;-63
2023/03/08 01:28:02;;;;;;;34.17;20.13;;;;;;;;;;4993475;28;20054;-63
2023/03/08 01:30:29;;;;;;;32.50;18.20;;;;;;;;;;4976182;28;20070;-62
2023/03/08 01:32:57;;;;;;;34.22;18.77;;;;;;;;;;4993600;28;20038;-62
2023/03/08 01:35:25;;;;;;;34.63;19.88;;;;;;;;;;4975927;28;20089;-63
2023/03/08 01:37:52;;;;;;;32.78;19.13;;;;;;;;;;4993514;28;20504;-62
2023/03/08 01:40:21;;;;;;;38.92;20.85;;;;;;;;;;4976061;28;20053;-62
2023/03/08 01:42:49;;;;;;;33.78;20.17;;;;;;;;;;4993370;28;20040;-62
2023/03/08 01:45:35;;;;;;;29.60;17.63;;;;;;;;;;4975888;28;20141;-62
2023/03/08 01:48:03;;;;;;;25.55;15.57;;;;;;;;;;4975796;28;20046;-62
2023/03/08 01:50:56;;;;;;;25.38;15.82;;;;;;;;;;4987590;28;20129;-62
2023/03/08 01:53:24;;;;;;;25.70;15.05;;;;;;;;;;4975779;28;20484;-62
2023/03/08 01:55:52;;;;;;;28.80;16.42;;;;;;;;;;4975819;28;20229;-63
2023/03/08 01:58:19;;;;;;;27.05;15.52;;;;;;;;;;4975813;28;20050;-62
2023/03/08 02:00:47;;;;;;;25.58;16.00;;;;;;;;;;4975805;28;20046;-62
2023/03/08 02:03:15;;;;;;;26.17;17.25;;;;;;;;;;4975769;28;20049;-62
2023/03/08 02:05:43;;;;;;;26.27;16.05;;;;;;;;;;4975703;28;20052;-62
2023/03/08 02:08:17;;;;;;;25.92;15.95;;;;;;;;;;4975748;28;20141;-62
2023/03/08 02:10:46;;;;;;;27.08;16.40;;;;;;;;;;4993173;28;20134;-62
2023/03/08 02:13:14;;;;;;;25.35;16.88;;;;;;;;;;4975132;28;20046;-62
2023/03/08 02:15:43;;;;;;;26.30;15.98;;;;;;;;;;4975579;28;20400;-62
2023/03/08 02:18:11;;;;;;;23.83;16.23;;;;;;;;;;4975553;28;20105;-62
2023/03/08 02:20:40;;;;;;;23.80;15.63;;;;;;;;;;4972546;28;20381;-62
2023/03/08 02:23:09;;;;;;;23.92;16.33;;;;;;;;;;4972431;28;20142;-62
2023/03/08 02:25:36;;;;;;;25.50;16.95;;;;;;;;;;4975469;28;20496;-62
2023/03/08 02:28:04;;;;;;;27.77;17.17;;;;;;;;;;4978662;28;20100;-63
2023/03/08 02:30:34;;;;;;;26.02;17.10;;;;;;;;;;4979460;28;20057;-63
2023/03/08 02:33:02;;;;;;;28.02;18.17;;;;;;;;;;4979405;28;20560;-63
2023/03/08 02:35:30;;;;;;;30.15;17.88;;;;;;;;;;4996827;28;20042;-63
2023/03/08 02:37:57;;;;;;;27.90;17.63;;;;;;;;;;4996841;28;20054;-63
2023/03/08 02:40:25;;;;;;;30.98;19.02;;;;;;;;;;4996632;28;20038;-63
2023/03/08 02:42:55;;;;;;;29.27;17.92;;;;;;;;;;4979230;28;20104;-63
2023/03/08 02:45:22;;;;;;;26.33;17.75;;;;;;;;;;4979160;28;20385;-62
2023/03/08 02:47:50;;;;;;;27.60;17.65;;;;;;;;;;4996596;28;20053;-63
2023/03/08 02:50:18;;;;;;;26.65;17.30;;;;;;;;;;4979484;28;20053;-63
2023/03/08 02:52:45;;;;;;;26.73;17.55;;;;;;;;;;4979165;28;20089;-63
2023/03/08 02:55:13;;;;;;;30.98;18.48;;;;;;;;;;4996555;28;20035;-62
2023/03/08 02:57:41;;;;;;;30.85;19.08;;;;;;;;;;4963362;28;20073;-63
2023/03/08 03:00:08;;;;;;;30.38;19.05;;;;;;;;;;4979441;28;20042;-63
2023/03/08 03:02:36;;;;;;;30.63;19.23;;;;;;;;;;4996544;28;20050;-63
2023/03/08 03:05:04;;;;;;;32.83;18.75;;;;;;;;;;4978931;28;20053;-62
2023/03/08 03:07:36;;;;;;;31.90;19.33;;;;;;;;;;4978835;28;20038;-63
2023/03/08 03:10:05;;;;;;;30.55;17.90;;;;;;;;;;4978746;28;20042;-63
2023/03/08 03:12:33;;;;;;;30.42;18.13;;;;;;;;;;4978628;28;20049;-63
2023/03/08 03:15:04;;;;;;;29.88;17.52;;;;;;;;;;4978573;28;20054;-63
2023/03/08 03:17:32;;;;;;;32.65;18.13;;;;;;;;;;4996059;28;20065;-62
2023/03/08 03:19:59;;;;;;;31.55;18.38;;;;;;;;;;4995963;28;20054;-63
2023/03/08 03:22:27;;;;;;;33.95;19.45;;;;;;;;;;4978484;28;20054;-62
2023/03/08 03:24:55;;;;;;;32.67;18.88;;;;;;;;;;4978400;28;20096;-63
2023/03/08 03:27:22;;;;;;;34.83;20.27;;;;;;;;;;4978340;28;20050;-63
2023/03/08 03:29:51;;;;;;;33.45;19.67;;;;;;;;;;4978310;28;20038;-62
2023/03/08 03:32:19;;;;;;;36.13;19.90;;;;;;;;;;4978223;28;20146;-63
2023/03/08 03:34:47;;;;;;;31.80;19.90;;;;;;;;;;4978383;28;20518;-62
2023/03/08 03:37:16;;;;;;;31.17;19.17;;;;;;;;;;4962249;28;20120;-62
2023/03/08 03:39:44;;;;;;;36.22;20.65;;;;;;;;;;4978046;28;20038;-63
2023/03/08 03:42:14;;;;;;;32.75;20.17;;;;;;;;;;4978111;28;20050;-62
2023/03/08 03:44:50;;;;;;;32.28;18.77;;;;;;;;;;4978139;28;20070;-62
2023/03/08 03:47:20;;;;;;;34.45;19.13;;;;;;;;;;4977994;28;20046;-62
2023/03/08 03:49:52;;;;;;;37.38;20.35;;;;;;;;;;4978327;28;20054;-62
2023/03/08 03:52:21;;;;;;;36.90;20.75;;;;;;;;;;4977964;28;20046;-62
2023/03/08 03:54:56;;;;;;;32.78;20.02;;;;;;;;;;4995353;28;20043;-62
2023/03/08 03:57:25;;;;;;;36.78;20.30;;;;;;;;;;4961892;28;20526;-62
2023/03/08 03:59:53;;;;;;;35.20;19.45;;;;;;;;;;4977846;28;20488;-62
2023/03/08 04:02:22;;;;;;;29.48;18.65;;;;;;;;;;4978081;28;20046;-62
2023/03/08 04:04:56;;;;;;;23.33;16.02;;;;;;;;;;4977963;28;20081;-62
2023/03/08 04:07:27;;;;;;;30.85;17.58;;;;;;;;;;4977708;28;20047;-62
2023/03/08 04:09:57;;;;;;;24.60;14.65;;;;;;;;;;4977695;28;20073;-62
2023/03/08 04:12:25;;;;;;;23.42;14.60;;;;;;;;;;4977547;28;20497;-62
2023/03/08 04:14:53;;;;;;;21.60;14.18;;;;;;;;;;4977276;28;20060;-62
2023/03/08 04:17:22;;;;;;;21.42;13.45;;;;;;;;;;4977792;28;20058;-62
2023/03/08 04:19:52;;;;;;;23.75;14.00;;;;;;;;;;4976964;28;20055;-62
2023/03/08 04:22:21;;;;;;;21.80;14.18;;;;;;;;;;4977412;28;20515;-62
2023/03/08 04:24:56;;;;;;;23.75;14.02;;;;;;;;;;4977374;28;20052;-62
2023/03/08 04:27:35;;;;;;;25.05;16.25;;;;;;;;;;4977174;28;20046;-62
2023/03/08 04:30:03;;;;;;;25.23;15.93;;;;;;;;;;4977136;28;20407;-62
2023/03/08 04:32:32;;;;;;;25.60;16.13;;;;;;;;;;4977123;28;20045;-62
2023/03/08 04:35:00;;;;;;;27.73;16.65;;;;;;;;;;4977130;28;20416;-62
2023/03/08 04:37:29;;;;;;;27.50;16.83;;;;;;;;;;4977099;28;20046;-62
2023/03/08 04:40:08;;;;;;;29.70;16.50;;;;;;;;;;4977026;28;20108;-62
2023/03/08 04:42:41;;;;;;;29.67;18.35;;;;;;;;;;4976939;28;20350;-62
2023/03/08 04:45:11;;;;;;;28.38;17.88;;;;;;;;;;4976937;28;20055;-62
2023/03/08 04:47:39;;;;;;;33.28;19.23;;;;;;;;;;4976686;28;20058;-63
2023/03/08 04:50:07;;;;;;;33.70;19.10;;;;;;;;;;4975995;28;20068;-62
2023/03/08 04:52:36;;;;;;;35.90;20.85;;;;;;;;;;4976879;28;20584;-63
2023/03/08 04:55:05;;;;;;;45.42;25.10;;;;;;;;;;4977146;28;20115;-63
2023/03/08 04:57:34;;;;;;;41.85;24.10;;;;;;;;;;4976680;28;20046;-62
2023/03/08 05:00:04;;;;;;;36.08;22.15;;;;;;;;;;4976594;28;20077;-62
2023/03/08 05:02:36;;;;;;;34.10;19.08;;;;;;;;;;4976568;28;20408;-62
2023/03/08 05:05:07;;;;;;;35.47;20.00;;;;;;;;;;4976534;28;20535;-62
2023/03/08 05:07:34;;;;;;;34.65;19.65;;;;;;;;;;4976422;28;20070;-62
2023/03/08 05:10:02;;;;;;;28.15;16.30;;;;;;;;;;4976374;28;20046;-62
2023/03/08 05:12:30;;;;;;;28.80;18.13;;;;;;;;;;4975929;28;20054;-62
2023/03/08 05:14:59;;;;;;;30.67;18.98;;;;;;;;;;4974332;28;20556;-63
2023/03/08 05:17:27;;;;;;;32.08;17.75;;;;;;;;;;4992271;28;20136;-62
2023/03/08 05:19:55;;;;;;;29.38;18.67;;;;;;;;;;4976244;28;20109;-62
2023/03/08 05:22:31;;;;;;;31.02;18.75;;;;;;;;;;4992469;28;20047;-62
2023/03/08 05:24:58;;;;;;;32.38;16.60;;;;;;;;;;4992324;28;20504;-63
2023/03/08 05:27:27;;;;;;;25.88;15.13;;;;;;;;;;4992394;28;20073;-63
2023/03/08 05:29:54;;;;;;;24.10;14.95;;;;;;;;;;4971380;28;20450;-63
2023/03/08 05:32:22;;;;;;;24.67;15.98;;;;;;;;;;4969654;28;20051;-63
2023/03/08 05:34:52;;;;;;;27.30;15.93;;;;;;;;;;4985717;28;20435;-63
2023/03/08 05:37:28;;;;;;;27.58;15.65;;;;;;;;;;4994007;28;20050;-63
2023/03/08 05:40:00;;;;;;;24.23;15.23;;;;;;;;;;4961581;28;20074;-63
2023/03/08 05:42:31;;;;;;;24.13;15.63;;;;;;;;;;4992152;28;20066;-63
2023/03/08 05:44:59;;;;;;;28.80;14.73;;;;;;;;;;4979722;28;20050;-63
2023/03/08 05:47:31;;;;;;;25.45;14.88;;;;;;;;;;4975600;28;20046;-63
2023/03/08 05:49:59;;;;;;;24.58;13.65;;;;;;;;;;4975826;28;20050;-63
2023/03/08 05:52:30;;;;;;;25.20;14.45;;;;;;;;;;4975901;28;20038;-64
2023/03/08 05:55:01;;;;;;;20.13;11.77;;;;;;;;;;4990336;28;20050;-63
2023/03/08 05:57:29;;;;;;;57.85;38.60;;;;;;;;;;4975834;28;20043;-63
2023/03/08 05:59:56;;;;;;;48.80;30.00;;;;;;;;;;4975677;28;20505;-63
2023/03/08 06:02:24;;;;;;;47.95;30.65;;;;;;;;;;4975660;28;20137;-63
2023/03/08 06:04:54;;;;;;;43.00;25.77;;;;;;;;;;4975699;28;20054;-63
2023/03/08 06:07:23;;;;;;;30.88;19.17;;;;;;;;;;4977307;28;20137;-64
2023/03/08 06:09:56;;;;;;;26.13;15.95;;;;;;;;;;4956364;28;20138;-64
2023/03/08 06:12:24;;;;;;;38.53;17.10;;;;;;;;;;4971860;28;20039;-63
2023/03/08 06:14:55;;;;;;;26.80;15.23;;;;;;;;;;4957215;28;20054;-64
2023/03/08 06:17:26;;;;;;;26.70;15.25;;;;;;;;;;4984904;28;20052;-63
2023/03/08 06:19:55;;;;;;;24.45;14.30;;;;;;;;;;4995512;28;20058;-63
2023/03/08 06:22:23;;;;;;;14.98;10.65;;;;;;;;;;4984033;28;20503;-63
2023/03/08 06:24:53;;;;;;;17.67;8.95;;;;;;;;;;4994980;28;20050;-63
2023/03/08 06:27:28;;;;;;;11.57;6.10;;;;;;;;;;4994901;28;20049;-63
2023/03/08 06:29:59;;;;;;;9.85;5.75;;;;;;;;;;4994890;28;20045;-61
2023/03/08 06:32:29;;;;;;;12.52;5.53;;;;;;;;;;4958815;28;20115;-62
2023/03/08 06:34:56;;;;;;;9.85;5.55;;;;;;;;;;4972192;28;20050;-62
2023/03/08 06:37:24;;;;;;;9.82;5.68;;;;;;;;;;4973165;28;20121;-62
2023/03/08 06:39:52;;;;;;;10.70;5.50;;;;;;;;;;4971547;28;20034;-64
2023/03/08 06:42:19;;;;;;;8.50;6.05;;;;;;;;;;4990631;28;20459;-62
2023/03/08 06:45:05;;;;;;;9.45;5.95;;;;;;;;;;4981162;28;20043;-63
2023/03/08 06:47:32;;;;;;;9.80;5.72;;;;;;;;;;4973523;28;20463;-62
2023/03/08 06:50:00;;;;;;;9.52;5.38;;;;;;;;;;4974370;28;20050;-63
2023/03/08 06:52:33;;;;;;;5.53;4.88;;;;;;;;;;4974134;28;20046;-63
2023/03/08 06:55:02;;;;;;;8.63;5.50;;;;;;;;;;4974214;28;20074;-63
2023/03/08 06:57:29;;;;;;;7.80;5.05;;;;;;;;;;4975066;28;20042;-63
2023/03/08 06:59:57;;;;;;;11.73;5.57;;;;;;;;;;4992337;28;20389;-61
2023/03/08 07:02:24;;;;;;;8.25;5.85;;;;;;;;;;4991625;28;20113;-64
2023/03/08 07:04:52;;;;;;;8.50;5.63;;;;;;;;;;4991370;28;20043;-63
2023/03/08 07:07:19;;;;;;;8.35;5.32;;;;;;;;;;4992669;28;20049;-63
2023/03/08 07:09:47;;;;;;;8.52;5.45;;;;;;;;;;4992269;28;20105;-64
2023/03/08 07:12:14;;;;;;;9.48;6.00;;;;;;;;;;4992485;28;20121;-64
2023/03/08 07:14:42;;;;;;;7.78;5.40;;;;;;;;;;4978539;28;20046;-63
2023/03/08 07:17:09;;;;;;;7.50;5.00;;;;;;;;;;4996176;28;20042;-63
2023/03/08 07:19:37;;;;;;;8.23;5.70;;;;;;;;;;4995110;28;20054;-64
2023/03/08 07:22:04;;;;;;;8.88;5.65;;;;;;;;;;4977620;28;20038;-63
2023/03/08 07:24:32;;;;;;;10.82;5.72;;;;;;;;;;4994419;28;20034;-63
2023/03/08 07:26:59;;;;;;;10.40;5.18;;;;;;;;;;4994187;28;20172;-63
2023/03/08 07:29:27;;;;;;;7.47;5.07;;;;;;;;;;4995535;28;20550;-63
2023/03/08 07:31:55;;;;;;;11.23;5.50;;;;;;;;;;4994283;28;20398;-63
2023/03/08 07:34:22;;;;;;;9.80;5.55;;;;;;;;;;4995330;28;20503;-64
2023/03/08 07:36:50;;;;;;;9.70;5.68;;;;;;;;;;4995355;28;20399;-64
2023/03/08 07:39:17;;;;;;;7.05;4.80;;;;;;;;;;4976584;28;20112;-63
2023/03/08 07:41:45;;;;;;;8.52;5.15;;;;;;;;;;4993932;28;20117;-63
2023/03/08 07:44:14;;;;;;;11.35;6.70;;;;;;;;;;4989318;28;20132;-64
2023/03/08 07:46:41;;;;;;;11.13;5.50;;;;;;;;;;4967300;28;20069;-64
2023/03/08 07:49:10;;;;;;;14.25;6.53;;;;;;;;;;4989024;28;20049;-63
2023/03/08 07:51:38;;;;;;;11.48;5.70;;;;;;;;;;4995446;28;20046;-62
2023/03/08 07:54:06;;;;;;;10.80;6.13;;;;;;;;;;4994975;28;20038;-63
2023/03/08 07:56:34;;;;;;;8.43;5.45;;;;;;;;;;4994738;28;20061;-62
2023/03/08 07:59:01;;;;;;;7.28;4.60;;;;;;;;;;4995237;28;20049;-63
2023/03/08 08:01:28;;;;;;;13.13;5.10;;;;;;;;;;4995287;28;20049;-63
2023/03/08 08:03:56;;;;;;;9.27;4.50;;;;;;;;;;4994130;28;20050;-63
2023/03/08 08:06:23;;;;;;;8.98;4.68;;;;;;;;;;4995205;28;20412;-63
2023/03/08 08:08:51;;;;;;;7.63;4.80;;;;;;;;;;4995164;28;20074;-63
2023/03/08 08:11:18;;;;;;;8.40;4.28;;;;;;;;;;4995107;28;20042;-63
2023/03/08 08:13:46;;;;;;;8.95;4.90;;;;;;;;;;4994655;28;20108;-63
2023/03/08 08:16:14;;;;;;;8.38;4.80;;;;;;;;;;4994221;28;20050;-63
2023/03/08 08:18:43;;;;;;;8.63;4.22;;;;;;;;;;4994011;28;20046;-64
2023/03/08 08:21:11;;;;;;;8.35;4.40;;;;;;;;;;4994657;28;20507;-63
2023/03/08 08:23:40;;;;;;;8.88;5.13;;;;;;;;;;4994806;28;20480;-63
2023/03/08 08:26:09;;;;;;;10.43;5.45;;;;;;;;;;4993380;28;20050;-63
2023/03/08 08:28:37;;;;;;;9.05;4.57;;;;;;;;;;4994545;28;20070;-63
2023/03/08 08:31:06;;;;;;;8.75;4.55;;;;;;;;;;4993441;28;20373;-63
2023/03/08 08:33:33;;;;;;;9.90;4.38;;;;;;;;;;4994758;28;20903;-62
2023/03/08 08:36:02;;;;;;;9.40;4.68;;;;;;;;;;4994559;28;20090;-63
2023/03/08 08:38:30;;;;;;;9.95;4.80;;;;;;;;;;4994551;28;20105;-62
2023/03/08 08:40:59;;;;;;;8.35;4.82;;;;;;;;;;4994654;28;20034;-62
2023/03/08 08:43:27;;;;;;;7.47;4.53;;;;;;;;;;4994750;28;20400;-63
2023/03/08 08:45:55;;;;;;;9.02;4.72;;;;;;;;;;4994587;28;20065;-62
2023/03/08 08:48:23;;;;;;;8.38;4.15;;;;;;;;;;4994708;28;20540;-62
2023/03/08 08:50:51;;;;;;;6.53;4.20;;;;;;;;;;4994525;28;20034;-62
2023/03/08 08:53:19;;;;;;;8.18;5.05;;;;;;;;;;4994367;28;20057;-62
2023/03/08 08:55:47;;;;;;;8.55;4.38;;;;;;;;;;4993212;28;20484;-62
2023/03/08 08:58:14;;;;;;;6.32;4.35;;;;;;;;;;4992923;28;20108;-62
2023/03/08 09:00:42;;;;;;;8.95;4.57;;;;;;;;;;4994277;28;20050;-62
2023/03/08 09:03:10;;;;;;;6.22;4.22;;;;;;;;;;4994239;28;20082;-63
2023/03/08 09:05:38;;;;;;;10.93;5.97;;;;;;;;;;4994166;28;20492;-63
2023/03/08 09:08:06;;;;;;;8.75;5.20;;;;;;;;;;4976685;28;20451;-63
2023/03/08 09:10:35;;;;;;;8.00;5.15;;;;;;;;;;4993916;28;20038;-64
2023/03/08 09:13:03;;;;;;;10.95;4.63;;;;;;;;;;4993912;28;20098;-64
2023/03/08 09:15:31;;;;;;;7.43;4.97;;;;;;;;;;4993988;28;20500;-63
2023/03/08 09:17:58;;;;;;;11.35;4.85;;;;;;;;;;4994138;28;20047;-63
2023/03/08 09:20:26;;;;;;;9.68;4.90;;;;;;;;;;4993645;28;20054;-63
2023/03/08 09:22:53;;;;;;;9.25;5.30;;;;;;;;;;4993821;28;20042;-64
2023/03/08 09:25:22;;;;;;;8.68;5.00;;;;;;;;;;4993622;28;20038;-63
2023/03/08 09:27:50;;;;;;;6.53;4.53;;;;;;;;;;4993676;28;20500;-63
2023/03/08 09:30:18;;;;;;;7.18;4.25;;;;;;;;;;4992479;28;20053;-63
2023/03/08 09:32:45;;;;;;;9.77;5.22;;;;;;;;;;4976115;28;20100;-63
2023/03/08 09:35:14;;;;;;;6.60;4.88;;;;;;;;;;4993162;28;20499;-63
2023/03/08 09:37:41;;;;;;;9.35;4.78;;;;;;;;;;4993519;28;20046;-63
2023/03/08 09:40:17;;;;;;;7.28;4.88;;;;;;;;;;4993574;28;20038;-63
2023/03/08 09:42:44;;;;;;;8.98;4.82;;;;;;;;;;4993477;28;20046;-63
2023/03/08 09:45:21;;;;;;;10.13;4.78;;;;;;;;;;4993448;28;20054;-63
2023/03/08 09:47:49;;;;;;;9.77;5.40;;;;;;;;;;4992253;28;20066;-63
2023/03/08 09:50:20;;;;;;;8.55;4.80;;;;;;;;;;4993406;28;20046;-63
2023/03/08 09:52:59;;;;;;;8.15;4.22;;;;;;;;;;4993427;28;20421;-63
2023/03/08 09:55:29;;;;;;;7.68;4.40;;;;;;;;;;4992014;28;20252;-63
2023/03/08 09:58:02;;;;;;;25.23;6.68;;;;;;;;;;4993508;28;20069;-63
2023/03/08 10:00:34;;;;;;;25.27;6.43;;;;;;;;;;4993513;28;20521;-63
2023/03/08 10:03:17;;;;;;;38.45;9.23;;;;;;;;;;4993141;28;20042;-63
2023/03/08 10:05:45;;;;;;;39.40;11.32;;;;;;;;;;4991950;28;20416;-63
2023/03/08 10:08:16;;;;;;;29.17;8.10;;;;;;;;;;4993160;28;20050;-63
2023/03/08 10:10:46;;;;;;;17.00;6.03;;;;;;;;;;4993196;28;20459;-63
2023/03/08 10:13:29;;;;;;;17.27;5.85;;;;;;;;;;4993086;28;20077;-62
2023/03/08 10:16:11;;;;;;;12.23;6.10;;;;;;;;;;4975754;28;20042;-62
2023/03/08 10:18:48;;;;;;;10.13;5.40;;;;;;;;;;4992969;28;20050;-62
2023/03/08 10:21:17;;;;;;;11.50;4.57;;;;;;;;;;4992945;28;20039;-62
2023/03/08 10:23:51;;;;;;;7.55;3.97;;;;;;;;;;4993068;28;20403;-64
2023/03/08 10:26:19;;;;;;;8.10;4.65;;;;;;;;;;4993047;28;20039;-63
2023/03/08 10:28:46;;;;;;;6.90;4.15;;;;;;;;;;4991594;28;20048;-64
2023/03/08 10:31:22;;;;;;;7.47;4.63;;;;;;;;;;4992991;28;20125;-63
2023/03/08 10:33:53;;;;;;;8.48;4.60;;;;;;;;;;4993033;28;20061;-63
2023/03/08 10:36:22;;;;;;;8.00;4.22;;;;;;;;;;4993349;28;20134;-63
2023/03/08 10:38:57;;;;;;;7.03;4.30;;;;;;;;;;4991716;28;20041;-62
2023/03/08 10:41:25;;;;;;;8.52;4.20;;;;;;;;;;4993072;28;20046;-64
2023/03/08 10:43:53;;;;;;;11.18;4.78;;;;;;;;;;4993159;28;20048;-64
2023/03/08 10:46:22;;;;;;;5.63;4.05;;;;;;;;;;4993040;28;20050;-64
2023/03/08 10:48:50;;;;;;;9.15;4.15;;;;;;;;;;4995701;28;20046;-63
2023/03/08 10:51:22;;;;;;;7.88;3.97;;;;;;;;;;4996526;28;20535;-63
2023/03/08 10:53:54;;;;;;;9.63;4.18;;;;;;;;;;4996607;28;20507;-63
2023/03/08 10:56:39;;;;;;;7.13;3.53;;;;;;;;;;4997065;28;20408;-63
2023/03/08 10:59:15;;;;;;;5.25;3.45;;;;;;;;;;4996682;28;20035;-63
2023/03/08 11:01:50;;;;;;;8.70;3.22;;;;;;;;;;4996472;28;20121;-63
2023/03/08 11:04:19;;;;;;;7.28;3.67;;;;;;;;;;4996228;28;20147;-62
2023/03/08 11:06:47;;;;;;;7.10;3.55;;;;;;;;;;4996419;28;20043;-63
2023/03/08 11:09:19;;;;;;;9.05;3.50;;;;;;;;;;4996341;28;20078;-63
2023/03/08 11:11:46;;;;;;;5.22;3.30;;;;;;;;;;4996241;28;20042;-63
2023/03/08 11:14:14;;;;;;;5.55;3.13;;;;;;;;;;4978687;28;20047;-63
2023/03/08 11:16:46;;;;;;;6.72;3.50;;;;;;;;;;4996338;28;20097;-63
2023/03/08 11:19:31;;;;;;;7.15;3.17;;;;;;;;;;4995947;28;20055;-63
2023/03/08 11:22:03;;;;;;;8.73;3.53;;;;;;;;;;4996107;28;20042;-63
2023/03/08 11:24:40;;;;;;;8.32;3.03;;;;;;;;;;4996264;28;20138;-63
2023/03/08 11:27:29;;;;;;;6.50;3.13;;;;;;;;;;4996000;28;20105;-63
2023/03/08 11:30:07;;;;;;;5.55;3.33;;;;;;;;;;4995802;28;20038;-64
2023/03/08 11:32:35;;;;;;;5.53;2.85;;;;;;;;;;4995962;28;20061;-63
2023/03/08 11:35:07;;;;;;;5.22;2.65;;;;;;;;;;4995869;28;20070;-64
2023/03/08 11:37:35;;;;;;;7.05;3.03;;;;;;;;;;4995785;28;20118;-64
2023/03/08 11:40:13;;;;;;;5.07;2.78;;;;;;;;;;4995902;28;20362;-64
2023/03/08 11:43:01;;;;;;;6.43;2.33;;;;;;;;;;4995691;28;20492;-64
2023/03/08 11:45:37;;;;;;;7.03;2.80;;;;;;;;;;4975242;28;20058;-63
2023/03/08 11:48:04;;;;;;;6.57;2.47;;;;;;;;;;4995586;28;20511;-63
2023/03/08 11:50:41;;;;;;;9.23;3.00;;;;;;;;;;4995652;28;20627;-63
2023/03/08 11:53:08;;;;;;;4.47;2.20;;;;;;;;;;4995471;28;20069;-62
2023/03/08 11:55:41;;;;;;;9.80;2.47;;;;;;;;;;4995513;28;20046;-62
2023/03/08 11:58:09;;;;;;;6.57;2.70;;;;;;;;;;4995096;28;20496;-64
2023/03/08 12:00:39;;;;;;;4.18;2.30;;;;;;;;;;4995239;28;20073;-64
2023/03/08 12:03:13;;;;;;;7.25;2.80;;;;;;;;;;4995451;28;20114;-63
2023/03/08 12:05:44;;;;;;;4.43;2.30;;;;;;;;;;4995381;28;20045;-65
2023/03/08 12:08:15;;;;;;;8.30;2.42;;;;;;;;;;4995501;28;20092;-63
2023/03/08 12:10:43;;;;;;;9.43;2.70;;;;;;;;;;4995230;28;20039;-63
2023/03/08 12:13:29;;;;;;;7.22;2.58;;;;;;;;;;4993939;28;20051;-62
2023/03/08 12:16:00;;;;;;;5.75;2.47;;;;;;;;;;4995382;28;20052;-63
2023/03/08 12:18:34;;;;;;;3.25;2.13;;;;;;;;;;4995271;28;20050;-63
2023/03/08 12:21:11;;;;;;;8.97;3.30;;;;;;;;;;4994505;28;20050;-62
2023/03/08 12:23:56;;;;;;;7.97;2.40;;;;;;;;;;4994854;28;20723;-62
2023/03/08 12:26:27;;;;;;;5.05;2.00;;;;;;;;;;4994555;28;20530;-63
2023/03/08 12:29:00;;;;;;;5.55;2.42;;;;;;;;;;4994958;28;20443;-61
2023/03/08 12:31:36;;;;;;;4.20;2.13;;;;;;;;;;4994594;28;20109;-62
2023/03/08 12:34:11;;;;;;;6.60;1.88;;;;;;;;;;4994563;28;20042;-62
2023/03/08 12:36:41;;;;;;;3.38;1.95;;;;;;;;;;4977559;28;20125;-64
2023/03/08 12:39:28;;;;;;;5.15;2.70;;;;;;;;;;4994457;28;20046;-63
2023/03/08 12:41:59;;;;;;;4.78;2.22;;;;;;;;;;4994584;28;20081;-64
2023/03/08 12:44:28;;;;;;;4.03;1.92;;;;;;;;;;4994349;28;20046;-61
2023/03/08 12:47:03;;;;;;;5.63;2.22;;;;;;;;;;4994420;28;20046;-62
2023/03/08 12:49:38;;;;;;;4.38;2.00;;;;;;;;;;4994355;28;20515;-61
2023/03/08 12:52:05;;;;;;;;;;;;;;;;;;4994795;28;20510;-66
2023/03/08 12:54:34;;;;;;;5.75;1.80;;;;;;;;;;4994399;28;19922;-62
2023/03/08 12:57:03;;;;;;;4.13;2.22;;;;;;;;;;4994258;28;20038;-61
2023/03/08 12:59:35;;;;;;;5.10;2.65;;;;;;;;;;4993990;28;20077;-61
2023/03/08 13:02:21;;;;;;;6.13;2.40;;;;;;;;;;4996747;28;20209;-62
2023/03/08 13:04:49;;;;;;;7.10;2.33;;;;;;;;;;4993828;28;20038;-61
2023/03/08 13:07:19;;;;;;;4.80;2.00;;;;;;;;;;4993971;28;20050;-62
2023/03/08 13:09:51;;;;;;;5.65;2.30;;;;;;;;;;4976028;28;20129;-62
2023/03/08 13:12:32;;;;;;;5.22;2.13;;;;;;;;;;4976364;28;20110;-62
2023/03/08 13:15:01;;;;;;;4.90;2.10;;;;;;;;;;4993712;28;20069;-62
2023/03/08 13:17:29;;;;;;;5.95;2.10;;;;;;;;;;4998218;28;20039;-62
2023/03/08 13:19:57;;;;;;;4.72;1.90;;;;;;;;;;4976043;28;20078;-62
2023/03/08 13:22:30;;;;;;;4.95;2.20;;;;;;;;;;4993440;28;20046;-62
2023/03/08 13:24:58;;;;;;;6.72;2.17;;;;;;;;;;4992897;28;20038;-61
2023/03/08 13:27:44;;;;;;;4.28;2.22;;;;;;;;;;5007021;28;20103;-62
2023/03/08 13:30:22;;;;;;;6.32;2.40;;;;;;;;;;4988998;28;20049;-63
2023/03/08 13:32:50;;;;;;;3.97;2.20;;;;;;;;;;4972150;28;20108;-62
2023/03/08 13:35:19;;;;;;;5.32;2.25;;;;;;;;;;4966174;28;20066;-62
2023/03/08 13:37:53;;;;;;;6.10;2.50;;;;;;;;;;4990997;28;20113;-62
2023/03/08 13:40:22;;;;;;;4.38;2.30;;;;;;;;;;4989577;28;20038;-62
2023/03/08 13:42:53;;;;;;;5.90;2.28;;;;;;;;;;4991471;28;20042;-61
2023/03/08 13:45:21;;;;;;;4.32;2.20;;;;;;;;;;4993198;28;20046;-62
2023/03/08 13:47:48;;;;;;;5.20;2.42;;;;;;;;;;4993123;28;20061;-62
2023/03/08 13:50:22;;;;;;;6.57;2.50;;;;;;;;;;4993262;28;20042;-61
2023/03/08 13:52:50;;;;;;;4.47;2.25;;;;;;;;;;4975054;28;20451;-62
2023/03/08 13:55:19;;;;;;;6.05;2.40;;;;;;;;;;4992926;28;20053;-63
2023/03/08 13:57:50;;;;;;;6.70;2.35;;;;;;;;;;4974478;28;20057;-61
2023/03/08 14:00:18;;;;;;;6.68;2.45;;;;;;;;;;4992100;28;20129;-62
2023/03/08 14:02:46;;;;;;;6.45;2.90;;;;;;;;;;4992906;28;20065;-62
2023/03/08 14:05:21;;;;;;;6.05;2.78;;;;;;;;;;4993069;28;20431;-61
2023/03/08 14:08:00;;;;;;;6.45;2.58;;;;;;;;;;4992952;28;20042;-61
2023/03/08 14:10:40;;;;;;;8.30;3.20;;;;;;;;;;4975709;28;20101;-62
2023/03/08 14:13:15;;;;;;;7.22;2.67;;;;;;;;;;4992911;28;20425;-62
2023/03/08 14:15:42;;;;;;;;;;;;;;;;;;4993203;28;20101;-62
2023/03/08 14:18:19;;;;;;;9.43;3.22;;;;;;;;;;4991707;28;19922;-63
2023/03/08 14:20:58;;;;;;;5.63;2.20;;;;;;;;;;4992012;28;20464;-61
2023/03/08 14:23:26;;;;;;;4.72;2.28;;;;;;;;;;4996318;28;20453;-60
2023/03/08 14:25:57;;;;;;;5.82;2.53;;;;;;;;;;4996420;28;20508;-60
2023/03/08 14:28:39;;;;;;;10.07;2.65;;;;;;;;;;4995464;28;20484;-61
2023/03/08 14:31:24;;;;;;;10.88;2.95;;;;;;;;;;4996370;28;20117;-60
2023/03/08 14:33:58;;;;;;;6.80;2.63;;;;;;;;;;4996033;28;20502;-60
2023/03/08 14:36:26;;;;;;;3.47;2.08;;;;;;;;;;4996348;28;20515;-60
2023/03/08 14:38:53;;;;;;;6.45;2.50;;;;;;;;;;4996605;28;20081;-60
2023/03/08 14:41:31;;;;;;;5.65;2.10;;;;;;;;;;4996282;28;20207;-61
2023/03/08 14:43:59;;;;;;;5.75;2.22;;;;;;;;;;4996354;28;20454;-61
2023/03/08 14:46:28;;;;;;;4.05;2.20;;;;;;;;;;4995067;28;20424;-62
2023/03/08 14:48:57;;;;;;;5.25;2.17;;;;;;;;;;4982493;28;20046;-62